This is the latest recevied weather packets stored in our database for station/object XE2AD-5. If no packets are shown the sender has not sent any weather packets the latest 10 day(s).
| Time | Temp. | Humidity | Pressure | Rain* | Wind** | Luminosity | Snow |
|---|---|---|---|---|---|---|---|
| 1787997859 | 25.56° C | 37% | 811.4 hPa | - | - | - | - |
| 1787994559 | 26.11° C | 36% | 811.3 hPa | - | - | - | - |
| 1787991258 | 26.11° C | 36% | 811.6 hPa | - | - | - | - |
| 1787988117 | 26.67° C | 35% | 812.1 hPa | - | - | - | - |
| 1787987958 | 26.67° C | 35% | 812.1 hPa | - | - | - | - |
| 1787984658 | 26.67° C | 34% | 811.7 hPa | - | - | - | - |
| 1787981358 | 26.67° C | 33% | 811.5 hPa | - | - | - | - |
| 1787978058 | 26.67° C | 31% | 811 hPa | - | - | - | - |
| 1787974758 | 27.22° C | 32% | 810.3 hPa | - | - | - | - |
| 1787971633 | 27.78° C | 31% | 809.6 hPa | - | - | - | - |
| 1787971458 | 27.78° C | 31% | 809.6 hPa | - | - | - | - |
| 1787968157 | 27.78° C | 32% | 809.3 hPa | - | - | - | - |
| 1787964857 | 27.78° C | 33% | 808.6 hPa | - | - | - | - |
| 1787961557 | 27.22° C | 30% | 807.7 hPa | - | - | - | - |
| 1787955149 | 27.22° C | 31% | 807.9 hPa | - | - | - | - |
| 1787954957 | 27.22° C | 31% | 807.9 hPa | - | - | - | - |
| 1787951656 | 26.67° C | 31% | 808.8 hPa | - | - | - | - |
| 1787948356 | 26.11° C | 34% | 809.5 hPa | - | - | - | - |
| 1787945055 | 25.56° C | 37% | 810.2 hPa | - | - | - | - |
| 1787941755 | 25° C | 38% | 811 hPa | - | - | - | - |
| 1787938455 | 25° C | 42% | 811.7 hPa | - | - | - | - |
| 1787935155 | 24.44° C | 42% | 811.9 hPa | - | - | - | - |
| 1787928554 | 24.44° C | 40% | 812.2 hPa | - | - | - | - |
| 1787925254 | 24.44° C | 39% | 812 hPa | - | - | - | - |
| 1787921954 | 24.44° C | 39% | 811.4 hPa | - | - | - | - |
* Rain since midnight (hover to see other rain measurements)
** Current wind speed in m/s (hover to see current wind gust speed)